createdAt,value
2018-06-08T00:01:41.919Z,21.50
2018-06-08T00:05:15.176Z,21.60
2018-06-08T00:08:48.379Z,21.60
2018-06-08T00:12:21.601Z,21.60
2018-06-08T00:15:54.832Z,21.60
2018-06-08T00:19:28.075Z,21.60
2018-06-08T00:23:01.311Z,21.60
2018-06-08T00:26:34.539Z,21.60
2018-06-08T00:30:07.780Z,21.50
2018-06-08T00:33:41.000Z,21.50
2018-06-08T00:37:14.233Z,21.40
2018-06-08T00:40:47.459Z,21.40
2018-06-08T00:44:20.699Z,21.30
2018-06-08T00:47:53.930Z,21.30
2018-06-08T00:51:27.156Z,21.30
2018-06-08T00:55:00.383Z,21.30
2018-06-08T00:58:33.644Z,21.30
2018-06-08T01:02:06.889Z,21.30
2018-06-08T01:05:40.124Z,21.20
2018-06-08T01:09:13.358Z,21.20
2018-06-08T01:12:46.575Z,21.10
2018-06-08T01:16:19.803Z,21.10
2018-06-08T01:19:53.056Z,21.00
2018-06-08T01:23:26.288Z,20.90
2018-06-08T01:26:59.509Z,21.00
2018-06-08T01:30:32.767Z,21.00
2018-06-08T01:34:06.004Z,20.90
2018-06-08T01:37:39.253Z,20.90
2018-06-08T01:41:12.471Z,20.90
2018-06-08T01:44:45.708Z,20.90
2018-06-08T01:48:18.957Z,20.90
2018-06-08T01:51:52.192Z,20.90
2018-06-08T01:55:25.432Z,20.90
2018-06-08T01:58:58.669Z,20.90
2018-06-08T02:02:31.928Z,20.90
2018-06-08T02:06:05.152Z,20.80
2018-06-08T02:09:38.408Z,20.90
2018-06-08T02:13:11.641Z,20.90
2018-06-08T02:23:50.893Z,20.90
2018-06-08T02:27:24.145Z,20.80
2018-06-08T02:30:57.403Z,20.70
2018-06-08T02:34:30.635Z,20.60
2018-06-08T02:38:03.858Z,20.50
2018-06-08T02:41:37.116Z,20.50
2018-06-08T02:45:10.357Z,20.50
2018-06-08T02:48:43.588Z,20.50
2018-06-08T02:52:16.835Z,20.50
2018-06-08T02:55:50.067Z,20.60
2018-06-08T02:59:23.285Z,20.60
2018-06-08T03:02:56.555Z,20.60
2018-06-08T03:06:29.796Z,20.50
2018-06-08T03:10:03.031Z,20.50
2018-06-08T03:13:36.259Z,20.50
2018-06-08T03:17:09.490Z,20.50
2018-06-08T03:20:42.708Z,20.50
2018-06-08T03:27:48.932Z,20.40
2018-06-08T03:31:22.167Z,20.40
2018-06-08T03:34:55.387Z,20.30
2018-06-08T03:38:28.608Z,20.40
2018-06-08T03:49:07.848Z,20.40
2018-06-08T03:52:41.092Z,20.40
2018-06-08T03:59:47.308Z,20.50
2018-06-08T04:03:20.539Z,20.50
2018-06-08T04:06:53.758Z,20.50
2018-06-08T04:10:26.984Z,20.60
2018-06-08T04:14:00.202Z,20.60
2018-06-08T04:17:33.438Z,20.60
2018-06-08T04:21:06.796Z,20.60
2018-06-08T04:24:40.054Z,20.70
2018-06-08T04:28:13.264Z,20.80
2018-06-08T04:31:46.499Z,20.80
2018-06-08T04:35:19.720Z,20.90
2018-06-08T04:38:52.939Z,21.00
2018-06-08T04:42:26.180Z,21.00
2018-06-08T04:45:59.408Z,21.10
2018-06-08T04:49:32.639Z,21.20
2018-06-08T04:53:05.892Z,21.20
2018-06-08T04:56:39.128Z,21.30
2018-06-08T05:00:12.347Z,21.30
2018-06-08T05:03:45.586Z,21.40
2018-06-08T05:07:18.824Z,21.40
2018-06-08T05:10:52.040Z,21.50
2018-06-08T05:14:25.330Z,21.60
2018-06-08T05:17:58.580Z,21.60
2018-06-08T05:21:31.807Z,21.70
2018-06-08T05:25:05.044Z,21.90
2018-06-08T05:28:38.276Z,22.00
2018-06-08T05:32:11.508Z,22.00
2018-06-08T05:35:44.748Z,22.10
2018-06-08T05:39:17.972Z,22.10
2018-06-08T05:42:51.199Z,22.10
2018-06-08T05:46:24.419Z,22.10
2018-06-08T05:49:57.695Z,22.10
2018-06-08T05:53:30.919Z,22.20
2018-06-08T05:57:04.255Z,22.40
2018-06-08T06:00:37.499Z,22.50
2018-06-08T06:04:10.739Z,22.60
2018-06-08T06:07:43.960Z,22.70
2018-06-08T06:11:17.195Z,22.90
2018-06-08T06:14:50.446Z,23.00
2018-06-08T06:18:23.672Z,23.00
2018-06-08T06:21:56.917Z,23.20
2018-06-08T06:25:30.157Z,23.30
2018-06-08T06:29:03.376Z,23.40
2018-06-08T06:36:09.588Z,23.80
2018-06-08T06:39:42.850Z,23.80
2018-06-08T06:43:16.060Z,23.80
2018-06-08T06:46:49.287Z,23.90
2018-06-08T06:50:22.769Z,24.00
2018-06-08T06:57:28.955Z,24.30
2018-06-08T07:04:35.177Z,24.60
2018-06-08T07:08:08.414Z,24.80
2018-06-08T07:11:41.634Z,24.80
2018-06-08T07:15:14.855Z,24.80
2018-06-08T07:18:48.128Z,24.80
2018-06-08T07:22:21.405Z,24.70
2018-06-08T07:25:54.660Z,24.80
2018-06-08T07:29:27.892Z,24.90
2018-06-08T07:33:01.121Z,25.10
2018-06-08T07:36:34.351Z,25.10
2018-06-08T07:43:40.592Z,25.30
2018-06-08T07:47:13.827Z,25.40
2018-06-08T07:50:47.068Z,25.60
2018-06-08T07:54:20.303Z,25.60
2018-06-08T07:57:53.535Z,25.70
2018-06-08T08:01:26.785Z,25.70
2018-06-08T08:05:00.145Z,25.70
2018-06-08T08:12:06.459Z,25.90
2018-06-08T08:15:39.699Z,26.00
2018-06-08T08:19:12.977Z,26.20
2018-06-08T08:22:46.173Z,26.30
2018-06-08T08:26:19.403Z,26.50
2018-06-08T08:29:52.636Z,26.50
2018-06-08T08:33:25.891Z,26.60
2018-06-08T08:36:59.115Z,26.60
2018-06-08T08:40:32.340Z,26.60
2018-06-08T08:44:05.682Z,26.70
2018-06-08T08:47:38.956Z,26.80
2018-06-08T08:51:12.183Z,26.80
2018-06-08T08:54:45.419Z,26.80
2018-06-08T08:58:18.632Z,26.80
2018-06-08T09:05:24.848Z,27.10
2018-06-08T09:08:58.113Z,27.20
2018-06-08T09:12:31.371Z,27.30
2018-06-08T09:16:04.626Z,27.40
2018-06-08T09:23:10.843Z,27.50
2018-06-08T09:26:44.087Z,27.50
2018-06-08T09:30:17.342Z,27.60
2018-06-08T09:33:50.588Z,27.70
2018-06-08T09:37:23.845Z,27.80
2018-06-08T09:40:57.077Z,27.90
2018-06-08T09:44:30.393Z,28.10
2018-06-08T09:48:03.611Z,28.30
2018-06-08T09:55:09.852Z,28.20
2018-06-08T09:58:43.104Z,28.30
2018-06-08T10:02:16.356Z,28.30
2018-06-08T10:05:49.559Z,28.30
2018-06-08T10:09:22.815Z,28.20
2018-06-08T10:12:56.040Z,28.20
2018-06-08T10:16:29.256Z,28.20
2018-06-08T10:20:02.497Z,28.20
2018-06-08T10:23:35.735Z,28.30
2018-06-08T10:27:08.980Z,28.50
2018-06-08T10:30:42.217Z,28.60
2018-06-08T10:34:15.447Z,28.70
2018-06-08T10:37:48.715Z,28.80
2018-06-08T10:41:21.957Z,28.90
2018-06-08T10:44:55.188Z,29.10
2018-06-08T10:48:28.406Z,29.20
2018-06-08T10:52:01.689Z,29.10
2018-06-08T10:55:34.908Z,29.00
2018-06-08T10:59:08.119Z,29.00
2018-06-08T11:02:41.372Z,28.90
2018-06-08T11:06:14.620Z,28.80
2018-06-08T11:09:47.876Z,28.70
2018-06-08T11:13:21.156Z,28.70
2018-06-08T11:16:54.371Z,28.60
2018-06-08T11:20:27.769Z,28.60
2018-06-08T11:24:00.998Z,28.70
2018-06-08T11:27:34.232Z,28.70
2018-06-08T11:31:07.452Z,28.80
2018-06-08T11:34:40.667Z,28.80
2018-06-08T11:38:13.919Z,28.80
2018-06-08T11:41:47.142Z,28.90
2018-06-08T11:45:20.364Z,29.00
2018-06-08T11:48:53.627Z,29.00
2018-06-08T11:52:26.843Z,29.10
2018-06-08T11:56:00.065Z,29.10
2018-06-08T11:59:33.291Z,29.10
2018-06-08T12:10:12.519Z,29.20
2018-06-08T12:13:45.769Z,29.30
2018-06-08T12:17:19.004Z,29.30
2018-06-08T12:20:52.231Z,29.30
2018-06-08T12:24:25.447Z,29.30
2018-06-08T12:27:58.691Z,29.40
2018-06-08T12:31:31.929Z,29.60
2018-06-08T12:35:05.194Z,29.70
2018-06-08T12:38:38.443Z,29.80
2018-06-08T12:42:11.676Z,29.70
2018-06-08T12:52:50.880Z,29.60
2018-06-08T12:56:24.115Z,29.60
2018-06-08T12:59:57.388Z,29.70
2018-06-08T13:03:31.440Z,29.90
2018-06-08T13:07:04.874Z,30.00
2018-06-08T13:10:38.097Z,30.20
2018-06-08T13:14:11.323Z,30.40
2018-06-08T13:17:44.540Z,30.50
2018-06-08T13:21:17.827Z,30.60
2018-06-08T13:24:51.023Z,30.80
2018-06-08T13:28:24.239Z,31.00
2018-06-08T13:31:57.467Z,30.90
2018-06-08T13:35:30.725Z,30.80
2018-06-08T13:39:05.939Z,30.80
2018-06-08T13:42:39.147Z,30.80
2018-06-08T13:46:23.932Z,30.60
2018-06-08T13:49:57.156Z,30.60
2018-06-08T13:53:30.389Z,30.60
2018-06-08T14:00:36.607Z,30.70
2018-06-08T14:04:09.850Z,30.80
2018-06-08T14:07:43.068Z,30.60
2018-06-08T14:14:49.288Z,31.00
2018-06-08T14:18:22.504Z,31.10
2018-06-08T14:21:55.785Z,31.20
2018-06-08T14:25:29.037Z,31.50
2018-06-08T14:29:02.285Z,31.90
2018-06-08T14:32:35.496Z,32.10
2018-06-08T14:36:08.751Z,32.10
2018-06-08T14:39:41.987Z,32.40
2018-06-08T14:43:15.210Z,32.50
2018-06-08T14:46:48.439Z,32.20
2018-06-08T14:50:21.668Z,31.90
2018-06-08T14:53:54.896Z,32.10
2018-06-08T14:57:28.811Z,32.40
2018-06-08T15:01:02.048Z,32.70
2018-06-08T15:04:35.270Z,33.10
2018-06-08T15:11:41.491Z,32.80
2018-06-08T15:15:14.732Z,33.00
2018-06-08T15:18:47.968Z,33.30
2018-06-08T15:22:21.183Z,33.60
2018-06-08T15:25:54.414Z,34.00
2018-06-08T15:29:27.636Z,34.40
2018-06-08T15:33:00.887Z,34.70
2018-06-08T15:40:07.086Z,34.60
2018-06-08T15:43:40.309Z,34.00
2018-06-08T15:47:13.545Z,33.40
2018-06-08T15:50:46.771Z,32.90
2018-06-08T15:57:52.983Z,32.20
2018-06-08T16:01:26.247Z,32.00
2018-06-08T16:04:59.468Z,31.80
2018-06-08T16:08:32.739Z,31.60
2018-06-08T16:12:05.940Z,31.30
2018-06-08T16:15:39.182Z,31.10
2018-06-08T16:19:12.407Z,31.00
2018-06-08T16:22:46.162Z,30.80
2018-06-08T16:26:19.377Z,30.60
2018-06-08T16:29:52.608Z,30.50
2018-06-08T16:33:25.826Z,30.40
2018-06-08T16:36:59.116Z,30.30
2018-06-08T16:40:32.317Z,30.20
2018-06-08T16:44:05.556Z,30.00
2018-06-08T16:47:38.848Z,29.70
2018-06-08T16:51:12.093Z,29.30
2018-06-08T16:54:45.353Z,29.00
2018-06-08T16:58:18.592Z,28.80
2018-06-08T17:01:51.803Z,28.50
2018-06-08T17:05:25.075Z,28.30
2018-06-08T17:08:58.292Z,28.20
2018-06-08T17:12:31.507Z,28.10
2018-06-08T17:16:04.713Z,28.00
2018-06-08T17:19:37.948Z,28.00
2018-06-08T17:23:11.177Z,28.00
2018-06-08T17:26:44.391Z,28.00
2018-06-08T17:30:17.599Z,28.00
2018-06-08T17:33:50.843Z,28.00
2018-06-08T17:40:57.042Z,28.00
2018-06-08T17:44:30.279Z,28.00
2018-06-08T17:48:03.508Z,28.00
2018-06-08T17:51:36.772Z,28.00
2018-06-08T17:55:09.999Z,27.90
2018-06-08T17:58:43.219Z,28.00
2018-06-08T18:02:16.452Z,28.00
2018-06-08T18:05:49.701Z,27.90
2018-06-08T18:09:22.948Z,27.90
2018-06-08T18:12:56.183Z,27.80
2018-06-08T18:16:29.418Z,27.70
2018-06-08T18:20:02.646Z,27.70
2018-06-08T18:23:35.895Z,27.60
2018-06-08T18:27:09.143Z,27.60
2018-06-08T18:34:15.401Z,27.50
2018-06-08T18:37:48.654Z,27.40
2018-06-08T18:41:21.965Z,27.30
2018-06-08T18:44:55.216Z,27.30
2018-06-08T18:48:28.454Z,27.30
2018-06-08T18:52:01.683Z,27.20
2018-06-08T18:55:34.932Z,27.00
2018-06-08T19:02:41.198Z,26.90
2018-06-08T19:06:14.453Z,26.80
2018-06-08T19:09:47.687Z,26.70
2018-06-08T19:13:20.919Z,26.70
2018-06-08T19:20:27.123Z,26.50
2018-06-08T19:24:00.365Z,26.50
2018-06-08T19:27:33.608Z,26.40
2018-06-08T19:31:06.851Z,26.30
2018-06-08T19:34:40.116Z,26.30
2018-06-08T19:41:46.333Z,26.20
2018-06-08T19:45:19.589Z,26.20
2018-06-08T19:48:52.827Z,26.20
2018-06-08T19:52:26.068Z,26.30
2018-06-08T19:55:59.308Z,26.40
2018-06-08T20:06:38.588Z,26.10
2018-06-08T20:10:11.855Z,26.00
2018-06-08T20:13:45.087Z,25.90
2018-06-08T20:20:51.307Z,25.90
2018-06-08T20:24:24.541Z,25.90
2018-06-08T20:27:57.779Z,25.80
2018-06-08T20:31:31.012Z,25.80
2018-06-08T20:35:04.313Z,25.80
2018-06-08T20:38:37.556Z,25.70
2018-06-08T20:42:10.792Z,25.60
2018-06-08T20:49:17.011Z,25.50
2018-06-08T20:52:50.239Z,25.50
2018-06-08T20:56:23.486Z,25.50
2018-06-08T20:59:56.720Z,25.40
2018-06-08T21:03:29.980Z,25.40
2018-06-08T21:07:03.201Z,25.30
2018-06-08T21:10:36.452Z,25.30
2018-06-08T21:14:09.699Z,25.20
2018-06-08T21:17:42.931Z,25.20
2018-06-08T21:21:16.162Z,25.20
2018-06-08T21:24:49.409Z,25.20
2018-06-08T21:28:22.660Z,25.20
2018-06-08T21:31:55.879Z,25.10
2018-06-08T21:35:29.111Z,24.90
2018-06-08T21:39:02.348Z,24.90
2018-06-08T21:42:35.584Z,24.80
2018-06-08T21:46:08.799Z,24.70
2018-06-08T21:49:42.030Z,24.70
2018-06-08T21:53:15.249Z,24.60
2018-06-08T21:56:48.471Z,24.60
2018-06-08T22:00:21.739Z,24.50
2018-06-08T22:03:54.970Z,24.50
2018-06-08T22:11:01.199Z,24.50
2018-06-08T22:14:34.425Z,24.40
2018-06-08T22:18:07.674Z,24.40
2018-06-08T22:21:40.897Z,24.30
2018-06-08T22:25:14.131Z,24.20
2018-06-08T22:28:47.358Z,24.10
2018-06-08T22:35:53.571Z,24.00
2018-06-08T22:39:26.811Z,24.00
2018-06-08T22:43:00.049Z,24.00
2018-06-08T22:46:33.297Z,24.00
2018-06-08T22:50:06.523Z,23.90
2018-06-08T22:53:39.767Z,23.90
2018-06-08T22:57:12.993Z,23.90
2018-06-08T23:00:46.235Z,23.80
2018-06-08T23:04:19.469Z,23.70
2018-06-08T23:07:52.716Z,23.70
2018-06-08T23:11:25.952Z,23.70
2018-06-08T23:14:59.187Z,23.60
2018-06-08T23:18:32.417Z,23.50
2018-06-08T23:22:05.662Z,23.50
2018-06-08T23:25:38.894Z,23.50
2018-06-08T23:29:12.131Z,23.50
2018-06-08T23:32:45.358Z,23.40
2018-06-08T23:36:18.601Z,23.40
2018-06-08T23:39:51.831Z,23.40
2018-06-08T23:43:25.069Z,23.30
2018-06-08T23:46:58.297Z,23.20
2018-06-08T23:50:31.524Z,23.10
2018-06-08T23:54:04.739Z,23.00
2018-06-08T23:57:37.972Z,22.90
